sensor_id;sensor_type;location;lat;lon;timestamp;pressure;altitude;pressure_sealevel;temperature;humidity
10510;BME280;5303;53.266;10.410;2022-07-23T00:00:04;101579.34;;;17.83;100.00
10510;BME280;5303;53.266;10.410;2022-07-23T00:02:30;101579.75;;;17.80;100.00
10510;BME280;5303;53.266;10.410;2022-07-23T00:04:55;101575.69;;;17.76;100.00
10510;BME280;5303;53.266;10.410;2022-07-23T00:07:20;101573.09;;;17.74;100.00
10510;BME280;5303;53.266;10.410;2022-07-23T00:09:45;101565.06;;;17.73;100.00
10510;BME280;5303;53.266;10.410;2022-07-23T00:12:11;101568.22;;;17.69;100.00
10510;BME280;5303;53.266;10.410;2022-07-23T00:14:36;101568.19;;;17.63;100.00
10510;BME280;5303;53.266;10.410;2022-07-23T00:17:01;101561.16;;;17.60;100.00
10510;BME280;5303;53.266;10.410;2022-07-23T00:19:27;101558.59;;;17.59;100.00
10510;BME280;5303;53.266;10.410;2022-07-23T00:21:52;101552.22;;;17.58;100.00
10510;BME280;5303;53.266;10.410;2022-07-23T00:24:17;101553.69;;;17.54;100.00
10510;BME280;5303;53.266;10.410;2022-07-23T00:26:42;101550.69;;;17.49;100.00
10510;BME280;5303;53.266;10.410;2022-07-23T00:29:08;101556.59;;;17.46;100.00
10510;BME280;5303;53.266;10.410;2022-07-23T00:31:33;101550.44;;;17.44;100.00
10510;BME280;5303;53.266;10.410;2022-07-23T00:33:58;101553.16;;;17.37;100.00
10510;BME280;5303;53.266;10.410;2022-07-23T00:36:26;101555.06;;;17.37;100.00
10510;BME280;5303;53.266;10.410;2022-07-23T00:38:52;101553.75;;;17.33;100.00
10510;BME280;5303;53.266;10.410;2022-07-23T00:41:18;101553.28;;;17.29;100.00
10510;BME280;5303;53.266;10.410;2022-07-23T00:43:43;101553.69;;;17.26;100.00
10510;BME280;5303;53.266;10.410;2022-07-23T00:46:09;101544.81;;;17.24;100.00
10510;BME280;5303;53.266;10.410;2022-07-23T00:48:34;101542.44;;;17.21;100.00
10510;BME280;5303;53.266;10.410;2022-07-23T00:51:00;101557.63;;;17.17;100.00
10510;BME280;5303;53.266;10.410;2022-07-23T00:53:26;101563.53;;;17.14;100.00
10510;BME280;5303;53.266;10.410;2022-07-23T00:55:51;101565.44;;;17.13;100.00
10510;BME280;5303;53.266;10.410;2022-07-23T00:58:18;101562.06;;;17.11;100.00
10510;BME280;5303;53.266;10.410;2022-07-23T01:00:43;101562.44;;;17.08;100.00
10510;BME280;5303;53.266;10.410;2022-07-23T01:03:09;101555.63;;;17.04;100.00
10510;BME280;5303;53.266;10.410;2022-07-23T01:05:34;101557.34;;;17.05;100.00
10510;BME280;5303;53.266;10.410;2022-07-23T01:08:00;101562.84;;;17.05;100.00
10510;BME280;5303;53.266;10.410;2022-07-23T01:10:25;101559.03;;;17.06;100.00
10510;BME280;5303;53.266;10.410;2022-07-23T01:13:08;101564.09;;;17.03;100.00
10510;BME280;5303;53.266;10.410;2022-07-23T01:15:35;101546.66;;;16.95;100.00
10510;BME280;5303;53.266;10.410;2022-07-23T01:18:01;101545.59;;;16.96;100.00
10510;BME280;5303;53.266;10.410;2022-07-23T01:20:27;101544.09;;;16.94;100.00
10510;BME280;5303;53.266;10.410;2022-07-23T01:22:53;101547.91;;;16.93;100.00
10510;BME280;5303;53.266;10.410;2022-07-23T01:25:19;101541.09;;;16.89;100.00
10510;BME280;5303;53.266;10.410;2022-07-23T01:27:44;101545.28;;;16.85;100.00
10510;BME280;5303;53.266;10.410;2022-07-23T01:30:11;101546.06;;;16.79;100.00
10510;BME280;5303;53.266;10.410;2022-07-23T01:32:37;101532.97;;;16.81;100.00
10510;BME280;5303;53.266;10.410;2022-07-23T01:35:02;101528.53;;;16.80;100.00
10510;BME280;5303;53.266;10.410;2022-07-23T01:37:28;101528.06;;;16.76;100.00
10510;BME280;5303;53.266;10.410;2022-07-23T01:39:53;101534.13;;;16.71;100.00
10510;BME280;5303;53.266;10.410;2022-07-23T01:42:18;101532.41;;;16.70;100.00
10510;BME280;5303;53.266;10.410;2022-07-23T01:44:44;101536.88;;;16.71;100.00
10510;BME280;5303;53.266;10.410;2022-07-23T01:47:09;101531.31;;;16.65;100.00
10510;BME280;5303;53.266;10.410;2022-07-23T01:49:34;101518.78;;;16.62;100.00
10510;BME280;5303;53.266;10.410;2022-07-23T01:52:00;101525.34;;;16.61;100.00
10510;BME280;5303;53.266;10.410;2022-07-23T01:54:30;101530.19;;;16.59;100.00
10510;BME280;5303;53.266;10.410;2022-07-23T01:56:56;101525.72;;;16.58;100.00
10510;BME280;5303;53.266;10.410;2022-07-23T01:59:22;101515.34;;;16.53;100.00
10510;BME280;5303;53.266;10.410;2022-07-23T02:01:47;101508.09;;;16.52;100.00
10510;BME280;5303;53.266;10.410;2022-07-23T02:04:15;101500.91;;;16.51;100.00
10510;BME280;5303;53.266;10.410;2022-07-23T02:06:41;101508.50;;;16.49;100.00
10510;BME280;5303;53.266;10.410;2022-07-23T02:09:06;101511.84;;;16.45;100.00
10510;BME280;5303;53.266;10.410;2022-07-23T02:11:31;101518.97;;;16.39;100.00
10510;BME280;5303;53.266;10.410;2022-07-23T02:13:57;101502.41;;;16.33;100.00
10510;BME280;5303;53.266;10.410;2022-07-23T02:16:22;101504.31;;;16.32;100.00
10510;BME280;5303;53.266;10.410;2022-07-23T02:18:47;101507.22;;;16.30;100.00
10510;BME280;5303;53.266;10.410;2022-07-23T02:21:12;101504.88;;;16.27;100.00
10510;BME280;5303;53.266;10.410;2022-07-23T02:23:38;101501.47;;;16.25;100.00
10510;BME280;5303;53.266;10.410;2022-07-23T02:26:03;101490.88;;;16.22;100.00
10510;BME280;5303;53.266;10.410;2022-07-23T02:28:29;101490.88;;;16.22;100.00
10510;BME280;5303;53.266;10.410;2022-07-23T02:30:54;101482.81;;;16.21;100.00
10510;BME280;5303;53.266;10.410;2022-07-23T02:33:19;101493.34;;;16.17;100.00
10510;BME280;5303;53.266;10.410;2022-07-23T02:35:45;101487.19;;;16.15;100.00
10510;BME280;5303;53.266;10.410;2022-07-23T02:38:10;101492.03;;;16.13;100.00
10510;BME280;5303;53.266;10.410;2022-07-23T02:40:35;101483.31;;;16.10;100.00
10510;BME280;5303;53.266;10.410;2022-07-23T02:43:00;101482.00;;;16.05;100.00
10510;BME280;5303;53.266;10.410;2022-07-23T02:45:26;101489.78;;;16.02;100.00
10510;BME280;5303;53.266;10.410;2022-07-23T02:47:51;101481.72;;;16.00;100.00
10510;BME280;5303;53.266;10.410;2022-07-23T02:50:17;101481.06;;;15.98;100.00
10510;BME280;5303;53.266;10.410;2022-07-23T02:52:42;101485.91;;;15.96;100.00
10510;BME280;5303;53.266;10.410;2022-07-23T02:55:07;101483.16;;;15.96;100.00
10510;BME280;5303;53.266;10.410;2022-07-23T02:57:33;101480.59;;;15.95;100.00
10510;BME280;5303;53.266;10.410;2022-07-23T02:59:58;101486.47;;;15.92;100.00
10510;BME280;5303;53.266;10.410;2022-07-23T03:02:24;101487.34;;;15.92;100.00
10510;BME280;5303;53.266;10.410;2022-07-23T03:04:49;101487.72;;;15.89;100.00
10510;BME280;5303;53.266;10.410;2022-07-23T03:07:18;101486.00;;;15.88;100.00
10510;BME280;5303;53.266;10.410;2022-07-23T03:09:44;101493.78;;;15.84;100.00
10510;BME280;5303;53.266;10.410;2022-07-23T03:12:09;101483.25;;;15.88;100.00
10510;BME280;5303;53.266;10.410;2022-07-23T03:14:34;101488.28;;;15.84;100.00
10510;BME280;5303;53.266;10.410;2022-07-23T03:17:00;101486.97;;;15.80;100.00
10510;BME280;5303;53.266;10.410;2022-07-23T03:19:26;101485.47;;;15.78;100.00
10510;BME280;5303;53.266;10.410;2022-07-23T03:21:51;101489.06;;;15.78;100.00
10510;BME280;5303;53.266;10.410;2022-07-23T03:24:17;101485.28;;;15.79;100.00
10510;BME280;5303;53.266;10.410;2022-07-23T03:26:43;101492.84;;;15.77;100.00
10510;BME280;5303;53.266;10.410;2022-07-23T03:29:09;101494.75;;;15.77;100.00
10510;BME280;5303;53.266;10.410;2022-07-23T03:31:34;101493.22;;;15.74;100.00
10510;BME280;5303;53.266;10.410;2022-07-23T03:34:00;101495.31;;;15.72;100.00
10510;BME280;5303;53.266;10.410;2022-07-23T03:36:26;101498.63;;;15.68;100.00
10510;BME280;5303;53.266;10.410;2022-07-23T03:38:52;101496.94;;;15.67;100.00
10510;BME280;5303;53.266;10.410;2022-07-23T03:41:18;101504.47;;;15.65;100.00
10510;BME280;5303;53.266;10.410;2022-07-23T03:43:44;101499.00;;;15.65;100.00
10510;BME280;5303;53.266;10.410;2022-07-23T03:46:09;101503.63;;;15.64;100.00
10510;BME280;5303;53.266;10.410;2022-07-23T03:48:35;101504.47;;;15.65;100.00
10510;BME280;5303;53.266;10.410;2022-07-23T03:51:00;101503.63;;;15.64;100.00
10510;BME280;5303;53.266;10.410;2022-07-23T03:53:26;101509.75;;;15.66;100.00
10510;BME280;5303;53.266;10.410;2022-07-23T03:55:51;101509.63;;;15.68;100.00
10510;BME280;5303;53.266;10.410;2022-07-23T03:58:16;101506.19;;;15.66;100.00
10510;BME280;5303;53.266;10.410;2022-07-23T04:00:42;101498.72;;;15.74;100.00
10510;BME280;5303;53.266;10.410;2022-07-23T04:03:07;101500.72;;;15.80;100.00
10510;BME280;5303;53.266;10.410;2022-07-23T04:05:33;101490.47;;;15.89;100.00
10510;BME280;5303;53.266;10.410;2022-07-23T04:07:58;101494.63;;;16.00;100.00
10510;BME280;5303;53.266;10.410;2022-07-23T04:10:23;101488.16;;;16.07;100.00
10510;BME280;5303;53.266;10.410;2022-07-23T04:12:49;101485.94;;;16.18;100.00
10510;BME280;5303;53.266;10.410;2022-07-23T04:15:14;101493.88;;;16.27;100.00
10510;BME280;5303;53.266;10.410;2022-07-23T04:17:39;101491.22;;;16.34;100.00
10510;BME280;5303;53.266;10.410;2022-07-23T04:20:05;101492.06;;;16.35;100.00
10510;BME280;5303;53.266;10.410;2022-07-23T04:22:30;101498.59;;;16.34;100.00
10510;BME280;5303;53.266;10.410;2022-07-23T04:24:55;101499.53;;;16.41;100.00
10510;BME280;5303;53.266;10.410;2022-07-23T04:27:21;101503.59;;;16.45;100.00
10510;BME280;5303;53.266;10.410;2022-07-23T04:29:46;101510.16;;;16.44;100.00
10510;BME280;5303;53.266;10.410;2022-07-23T04:32:11;101507.78;;;16.62;100.00
10510;BME280;5303;53.266;10.410;2022-07-23T04:34:37;101510.03;;;16.73;100.00
10510;BME280;5303;53.266;10.410;2022-07-23T04:37:02;101509.13;;;16.66;100.00
10510;BME280;5303;53.266;10.410;2022-07-23T04:39:27;101513.50;;;16.61;100.00
10510;BME280;5303;53.266;10.410;2022-07-23T04:41:53;101510.00;;;16.52;100.00
10510;BME280;5303;53.266;10.410;2022-07-23T04:44:18;101511.84;;;16.45;100.00
10510;BME280;5303;53.266;10.410;2022-07-23T04:46:43;101516.22;;;16.39;100.00
10510;BME280;5303;53.266;10.410;2022-07-23T04:49:09;101516.81;;;16.35;100.00
10510;BME280;5303;53.266;10.410;2022-07-23T04:51:34;101517.19;;;16.32;100.00
10510;BME280;5303;53.266;10.410;2022-07-23T04:53:59;101515.47;;;16.30;100.00
10510;BME280;5303;53.266;10.410;2022-07-23T04:56:25;101517.13;;;16.25;100.00
10510;BME280;5303;53.266;10.410;2022-07-23T04:58:50;101507.38;;;16.22;100.00
10510;BME280;5303;53.266;10.410;2022-07-23T05:01:15;101520.25;;;16.22;100.00
10510;BME280;5303;53.266;10.410;2022-07-23T05:03:40;101529.34;;;16.22;100.00
10510;BME280;5303;53.266;10.410;2022-07-23T05:06:06;101523.84;;;16.22;100.00
10510;BME280;5303;53.266;10.410;2022-07-23T05:08:31;101523.41;;;16.19;100.00
10510;BME280;5303;53.266;10.410;2022-07-23T05:10:56;101521.28;;;16.21;100.00
10510;BME280;5303;53.266;10.410;2022-07-23T05:13:22;101528.44;;;16.15;100.00
10510;BME280;5303;53.266;10.410;2022-07-23T05:15:47;101532.88;;;16.16;100.00
10510;BME280;5303;53.266;10.410;2022-07-23T05:18:13;101537.06;;;16.12;100.00
10510;BME280;5303;53.266;10.410;2022-07-23T05:20:38;101541.22;;;16.08;100.00
10510;BME280;5303;53.266;10.410;2022-07-23T05:23:03;101534.03;;;16.07;100.00
10510;BME280;5303;53.266;10.410;2022-07-23T05:25:29;101533.63;;;16.10;100.00
10510;BME280;5303;53.266;10.410;2022-07-23T05:27:54;101533.94;;;16.15;100.00
10510;BME280;5303;53.266;10.410;2022-07-23T05:30:20;101545.38;;;16.19;100.00
10510;BME280;5303;53.266;10.410;2022-07-23T05:32:45;101535.91;;;16.21;100.00
10510;BME280;5303;53.266;10.410;2022-07-23T05:35:11;101533.41;;;16.26;100.00
10510;BME280;5303;53.266;10.410;2022-07-23T05:37:37;101536.63;;;16.30;100.00
10510;BME280;5303;53.266;10.410;2022-07-23T05:40:03;101536.63;;;16.30;100.00
10510;BME280;5303;53.266;10.410;2022-07-23T05:42:31;101543.63;;;16.33;100.00
10510;BME280;5303;53.266;10.410;2022-07-23T05:44:56;101539.34;;;16.45;100.00
10510;BME280;5303;53.266;10.410;2022-07-23T05:47:21;101542.66;;;16.40;100.00
10510;BME280;5303;53.266;10.410;2022-07-23T05:49:47;101541.69;;;16.48;100.00
10510;BME280;5303;53.266;10.410;2022-07-23T05:52:12;101530.31;;;16.51;100.00
10510;BME280;5303;53.266;10.410;2022-07-23T05:54:37;101538.19;;;16.54;100.00
10510;BME280;5303;53.266;10.410;2022-07-23T05:57:03;101548.72;;;16.50;100.00
10510;BME280;5303;53.266;10.410;2022-07-23T05:59:29;101554.78;;;16.46;100.00
10510;BME280;5303;53.266;10.410;2022-07-23T06:01:55;101556.09;;;16.50;100.00
10510;BME280;5303;53.266;10.410;2022-07-23T06:04:20;101558.00;;;16.49;100.00
10510;BME280;5303;53.266;10.410;2022-07-23T06:06:46;101555.31;;;16.56;100.00
10510;BME280;5303;53.266;10.410;2022-07-23T06:09:11;101551.16;;;16.60;100.00
10510;BME280;5303;53.266;10.410;2022-07-23T06:11:38;101550.94;;;16.62;100.00
10510;BME280;5303;53.266;10.410;2022-07-23T06:14:04;101546.53;;;16.82;100.00
10510;BME280;5303;53.266;10.410;2022-07-23T06:16:29;101537.75;;;16.93;100.00
10510;BME280;5303;53.266;10.410;2022-07-23T06:18:54;101542.78;;;17.11;100.00
10510;BME280;5303;53.266;10.410;2022-07-23T06:21:20;101537.66;;;17.36;100.00
10510;BME280;5303;53.266;10.410;2022-07-23T06:23:45;101545.44;;;17.54;100.00
10510;BME280;5303;53.266;10.410;2022-07-23T06:26:10;101534.16;;;17.77;100.00
10510;BME280;5303;53.266;10.410;2022-07-23T06:28:36;101525.81;;;17.70;100.00
10510;BME280;5303;53.266;10.410;2022-07-23T06:31:01;101531.00;;;17.80;100.00
10510;BME280;5303;53.266;10.410;2022-07-23T06:33:26;101534.63;;;17.87;100.00
10510;BME280;5303;53.266;10.410;2022-07-23T06:35:52;101543.16;;;17.92;100.00
10510;BME280;5303;53.266;10.410;2022-07-23T06:38:17;101540.69;;;18.04;100.00
10510;BME280;5303;53.266;10.410;2022-07-23T06:40:42;101541.75;;;18.10;100.00
10510;BME280;5303;53.266;10.410;2022-07-23T06:43:08;101538.41;;;18.21;100.00
10510;BME280;5303;53.266;10.410;2022-07-23T06:45:34;101540.94;;;18.23;100.00
10510;BME280;5303;53.266;10.410;2022-07-23T06:47:59;101544.09;;;18.20;100.00
10510;BME280;5303;53.266;10.410;2022-07-23T06:50:27;101545.56;;;18.09;100.00
10510;BME280;5303;53.266;10.410;2022-07-23T06:52:53;101546.59;;;18.01;100.00
10510;BME280;5303;53.266;10.410;2022-07-23T06:55:18;101549.16;;;18.09;100.00
10510;BME280;5303;53.266;10.410;2022-07-23T06:57:44;101541.56;;;18.18;100.00
10510;BME280;5303;53.266;10.410;2022-07-23T07:00:09;101542.78;;;18.02;100.00
10510;BME280;5303;53.266;10.410;2022-07-23T07:02:35;101542.63;;;18.17;100.00
10510;BME280;5303;53.266;10.410;2022-07-23T07:05:00;101540.03;;;18.09;100.00
10510;BME280;5303;53.266;10.410;2022-07-23T07:07:26;101537.50;;;18.07;100.00
10510;BME280;5303;53.266;10.410;2022-07-23T07:09:51;101540.03;;;18.09;100.00
10510;BME280;5303;53.266;10.410;2022-07-23T07:12:16;101545.09;;;17.99;100.00
10510;BME280;5303;53.266;10.410;2022-07-23T07:14:42;101552.31;;;18.00;100.00
10510;BME280;5303;53.266;10.410;2022-07-23T07:17:07;101546.84;;;18.13;100.00
10510;BME280;5303;53.266;10.410;2022-07-23T07:19:32;101547.88;;;18.05;100.00
10510;BME280;5303;53.266;10.410;2022-07-23T07:21:57;101544.91;;;18.07;100.00
10510;BME280;5303;53.266;10.410;2022-07-23T07:24:23;101535.72;;;17.93;100.00
10510;BME280;5303;53.266;10.410;2022-07-23T07:26:48;101535.81;;;18.13;100.00
10510;BME280;5303;53.266;10.410;2022-07-23T07:29:13;101547.56;;;18.35;100.00
10510;BME280;5303;53.266;10.410;2022-07-23T07:31:39;101545.88;;;18.34;100.00
10510;BME280;5303;53.266;10.410;2022-07-23T07:34:04;101549.09;;;18.51;100.00
10510;BME280;5303;53.266;10.410;2022-07-23T07:36:29;101547.91;;;18.12;100.00
10510;BME280;5303;53.266;10.410;2022-07-23T07:38:55;101547.59;;;18.42;100.00
10510;BME280;5303;53.266;10.410;2022-07-23T07:41:20;101546.78;;;18.54;100.00
10510;BME280;5303;53.266;10.410;2022-07-23T07:43:49;101543.44;;;18.66;100.00
10510;BME280;5303;53.266;10.410;2022-07-23T07:46:15;101542.19;;;18.75;100.00
10510;BME280;5303;53.266;10.410;2022-07-23T07:48:41;101546.44;;;18.84;100.00
10510;BME280;5303;53.266;10.410;2022-07-23T07:51:06;101547.50;;;18.90;100.00
10510;BME280;5303;53.266;10.410;2022-07-23T07:53:31;101540.06;;;18.90;100.00
10510;BME280;5303;53.266;10.410;2022-07-23T07:55:57;101542.00;;;18.83;100.00
10510;BME280;5303;53.266;10.410;2022-07-23T07:58:22;101540.91;;;18.91;100.00
10510;BME280;5303;53.266;10.410;2022-07-23T08:00:47;101544.97;;;19.01;100.00
10510;BME280;5303;53.266;10.410;2022-07-23T08:03:13;101544.75;;;18.90;100.00
10510;BME280;5303;53.266;10.410;2022-07-23T08:05:38;101545.81;;;18.95;100.00
10510;BME280;5303;53.266;10.410;2022-07-23T08:08:04;101546.03;;;19.00;100.00
10510;BME280;5303;53.266;10.410;2022-07-23T08:10:29;101547.53;;;19.03;100.00
10510;BME280;5303;53.266;10.410;2022-07-23T08:12:57;101552.00;;;18.97;100.00
10510;BME280;5303;53.266;10.410;2022-07-23T08:15:23;101552.44;;;19.07;100.00
10510;BME280;5303;53.266;10.410;2022-07-23T08:17:49;101557.53;;;19.24;100.00
10510;BME280;5303;53.266;10.410;2022-07-23T08:20:18;101547.72;;;19.35;100.00
10510;BME280;5303;53.266;10.410;2022-07-23T08:22:55;101548.38;;;19.37;100.00
10510;BME280;5303;53.266;10.410;2022-07-23T08:25:26;101547.53;;;19.49;100.00
10510;BME280;5303;53.266;10.410;2022-07-23T08:27:53;101552.19;;;19.55;100.00
10510;BME280;5303;53.266;10.410;2022-07-23T08:30:19;101545.38;;;19.51;100.00
10510;BME280;5303;53.266;10.410;2022-07-23T08:32:56;101544.75;;;19.56;100.00
10510;BME280;5303;53.266;10.410;2022-07-23T08:35:24;101544.78;;;19.43;100.00
10510;BME280;5303;53.266;10.410;2022-07-23T08:37:50;101549.88;;;19.66;100.00
10510;BME280;5303;53.266;10.410;2022-07-23T08:40:15;101550.50;;;19.74;100.00
10510;BME280;5303;53.266;10.410;2022-07-23T08:42:41;101555.31;;;19.92;100.00
10510;BME280;5303;53.266;10.410;2022-07-23T08:45:07;101548.09;;;19.91;100.00
10510;BME280;5303;53.266;10.410;2022-07-23T08:47:37;101545.72;;;20.01;100.00
10510;BME280;5303;53.266;10.410;2022-07-23T08:50:03;101558.09;;;19.92;100.00
10510;BME280;5303;53.266;10.410;2022-07-23T08:52:30;101554.91;;;19.89;100.00
10510;BME280;5303;53.266;10.410;2022-07-23T08:54:56;101548.75;;;19.80;100.00
10510;BME280;5303;53.266;10.410;2022-07-23T08:57:22;101547.72;;;19.74;100.00
10510;BME280;5303;53.266;10.410;2022-07-23T08:59:47;101560.25;;;19.70;100.00
10510;BME280;5303;53.266;10.410;2022-07-23T09:02:12;101554.72;;;19.70;100.00
10510;BME280;5303;53.266;10.410;2022-07-23T09:04:38;101553.66;;;19.58;100.00
10510;BME280;5303;53.266;10.410;2022-07-23T09:07:04;101551.78;;;19.65;100.00
10510;BME280;5303;53.266;10.410;2022-07-23T09:09:29;101552.63;;;19.52;100.00
10510;BME280;5303;53.266;10.410;2022-07-23T09:12:05;101559.00;;;19.33;100.00
10510;BME280;5303;53.266;10.410;2022-07-23T09:14:38;101562.81;;;19.05;100.00
10510;BME280;5303;53.266;10.410;2022-07-23T09:17:15;101559.19;;;18.85;100.00
10510;BME280;5303;53.266;10.410;2022-07-23T09:19:41;101558.97;;;18.87;100.00
10510;BME280;5303;53.266;10.410;2022-07-23T09:22:23;101563.00;;;18.84;100.00
10510;BME280;5303;53.266;10.410;2022-07-23T09:25:18;101566.84;;;18.90;100.00
10510;BME280;5303;53.266;10.410;2022-07-23T09:27:48;101569.84;;;18.95;100.00
10510;BME280;5303;53.266;10.410;2022-07-23T09:30:14;101571.94;;;19.13;100.00
10510;BME280;5303;53.266;10.410;2022-07-23T09:32:39;101568.56;;;19.24;100.00
10510;BME280;5303;53.266;10.410;2022-07-23T09:35:05;101558.16;;;19.39;100.00
10510;BME280;5303;53.266;10.410;2022-07-23T09:37:31;101560.47;;;19.62;100.00
10510;BME280;5303;53.266;10.410;2022-07-23T09:40:07;101555.78;;;19.83;100.00
10510;BME280;5303;53.266;10.410;2022-07-23T09:42:33;101563.19;;;19.89;100.00
10510;BME280;5303;53.266;10.410;2022-07-23T09:44:59;101568.06;;;19.93;100.00
10510;BME280;5303;53.266;10.410;2022-07-23T09:47:28;101562.34;;;19.95;100.00
10510;BME280;5303;53.266;10.410;2022-07-23T09:50:07;101560.00;;;19.92;100.00
10510;BME280;5303;53.266;10.410;2022-07-23T09:52:43;101560.84;;;19.92;100.00
10510;BME280;5303;53.266;10.410;2022-07-23T09:55:10;101562.78;;;19.85;100.00
10510;BME280;5303;53.266;10.410;2022-07-23T09:57:36;101558.53;;;19.83;100.00
10510;BME280;5303;53.266;10.410;2022-07-23T10:00:05;101565.34;;;19.80;100.00
10510;BME280;5303;53.266;10.410;2022-07-23T10:02:32;101561.50;;;19.94;100.00
10510;BME280;5303;53.266;10.410;2022-07-23T10:05:00;101565.13;;;19.88;99.41
10510;BME280;5303;53.266;10.410;2022-07-23T10:07:26;101564.22;;;20.01;100.00
10510;BME280;5303;53.266;10.410;2022-07-23T10:09:55;101566.34;;;19.99;99.25
10510;BME280;5303;53.266;10.410;2022-07-23T10:12:20;101566.63;;;19.84;100.00
10510;BME280;5303;53.266;10.410;2022-07-23T10:14:46;101571.28;;;19.90;100.00
10510;BME280;5303;53.266;10.410;2022-07-23T10:17:12;101575.38;;;19.74;100.00
10510;BME280;5303;53.266;10.410;2022-07-23T10:19:38;101571.28;;;19.90;100.00
10510;BME280;5303;53.266;10.410;2022-07-23T10:22:25;101571.88;;;19.99;100.00
10510;BME280;5303;53.266;10.410;2022-07-23T10:28:15;101576.22;;;19.62;100.00
10510;BME280;5303;53.266;10.410;2022-07-23T10:31:00;101575.97;;;19.83;100.00
10510;BME280;5303;53.266;10.410;2022-07-23T10:33:52;101580.22;;;19.86;100.00
10510;BME280;5303;53.266;10.410;2022-07-23T10:38:51;101570.56;;;20.15;100.00
10510;BME280;5303;53.266;10.410;2022-07-23T10:41:35;101576.00;;;20.35;100.00
10510;BME280;5303;53.266;10.410;2022-07-23T10:44:10;101573.63;;;20.38;89.22
10510;BME280;5303;53.266;10.410;2022-07-23T10:46:36;101573.88;;;20.37;86.63
10510;BME280;5303;53.266;10.410;2022-07-23T10:49:28;101571.28;;;20.48;88.54
10510;BME280;5303;53.266;10.410;2022-07-23T10:52:28;101573.63;;;20.52;86.76
10510;BME280;5303;53.266;10.410;2022-07-23T10:57:48;101553.69;;;20.75;83.21
10510;BME280;5303;53.266;10.410;2022-07-23T11:00:15;101558.25;;;20.94;81.63
10510;BME280;5303;53.266;10.410;2022-07-23T11:02:44;101564.63;;;20.94;77.38
10510;BME280;5303;53.266;10.410;2022-07-23T11:05:13;101569.53;;;20.92;76.80
10510;BME280;5303;53.266;10.410;2022-07-23T11:16:14;101582.25;;;20.23;85.61
10510;BME280;5303;53.266;10.410;2022-07-23T11:24:04;101588.38;;;20.32;88.96
10510;BME280;5303;53.266;10.410;2022-07-23T11:32:08;101586.75;;;20.63;88.13
10510;BME280;5303;53.266;10.410;2022-07-23T11:34:44;101583.22;;;20.87;87.76
10510;BME280;5303;53.266;10.410;2022-07-23T11:37:12;101585.19;;;20.74;85.72
10510;BME280;5303;53.266;10.410;2022-07-23T11:39:56;101582.66;;;20.72;84.85
10510;BME280;5303;53.266;10.410;2022-07-23T11:42:22;101583.78;;;20.64;85.17
10510;BME280;5303;53.266;10.410;2022-07-23T11:44:49;101590.16;;;20.65;84.50
10510;BME280;5303;53.266;10.410;2022-07-23T11:47:22;101579.66;;;20.74;86.30
10510;BME280;5303;53.266;10.410;2022-07-23T11:49:58;101586.16;;;20.92;86.47
10510;BME280;5303;53.266;10.410;2022-07-23T11:52:25;101583.34;;;20.99;86.06
10510;BME280;5303;53.266;10.410;2022-07-23T11:54:53;101588.03;;;20.99;84.51
10510;BME280;5303;53.266;10.410;2022-07-23T11:57:20;101590.09;;;21.10;82.93
10510;BME280;5303;53.266;10.410;2022-07-23T11:59:47;101599.88;;;21.12;81.04
10510;BME280;5303;53.266;10.410;2022-07-23T12:02:14;101592.06;;;21.03;79.75
10510;BME280;5303;53.266;10.410;2022-07-23T12:04:45;101587.44;;;20.97;81.12
10510;BME280;5303;53.266;10.410;2022-07-23T12:09:56;101588.75;;;20.87;75.88
10510;BME280;5303;53.266;10.410;2022-07-23T12:12:22;101590.94;;;21.10;76.68
10510;BME280;5303;53.266;10.410;2022-07-23T12:14:55;101594.06;;;21.21;76.70
10510;BME280;5303;53.266;10.410;2022-07-23T12:17:30;101580.19;;;21.21;77.21
10510;BME280;5303;53.266;10.410;2022-07-23T12:19:57;101581.78;;;21.42;76.32
10510;BME280;5303;53.266;10.410;2022-07-23T12:22:23;101583.34;;;21.56;78.08
10510;BME280;5303;53.266;10.410;2022-07-23T12:24:54;101588.09;;;21.49;76.68
10510;BME280;5303;53.266;10.410;2022-07-23T12:27:21;101582.56;;;21.49;75.22
10510;BME280;5303;53.266;10.410;2022-07-23T12:29:47;101574.50;;;21.40;76.49
10510;BME280;5303;53.266;10.410;2022-07-23T12:32:27;101582.31;;;21.50;75.46
10510;BME280;5303;53.266;10.410;2022-07-23T12:35:07;101590.16;;;21.35;75.47
10510;BME280;5303;53.266;10.410;2022-07-23T12:37:38;101590.31;;;21.40;74.30
10510;BME280;5303;53.266;10.410;2022-07-23T12:40:27;101585.44;;;21.04;75.55
10510;BME280;5303;53.266;10.410;2022-07-23T12:42:58;101577.94;;;21.11;78.67
10510;BME280;5303;53.266;10.410;2022-07-23T12:45:25;101584.16;;;21.38;77.21
10510;BME280;5303;53.266;10.410;2022-07-23T12:47:55;101579.91;;;21.60;75.59
10510;BME280;5303;53.266;10.410;2022-07-23T12:50:35;101581.88;;;21.53;73.16
10510;BME280;5303;53.266;10.410;2022-07-23T12:53:09;101586.75;;;21.58;73.16
10510;BME280;5303;53.266;10.410;2022-07-23T12:55:36;101582.50;;;21.55;73.21
10510;BME280;5303;53.266;10.410;2022-07-23T12:58:15;101591.97;;;21.66;73.76
10510;BME280;5303;53.266;10.410;2022-07-23T13:01:01;101596.47;;;21.67;73.19
10510;BME280;5303;53.266;10.410;2022-07-23T13:03:30;101590.16;;;21.78;74.70
10510;BME280;5303;53.266;10.410;2022-07-23T13:05:57;101593.38;;;21.75;73.08
10510;BME280;5303;53.266;10.410;2022-07-23T13:08:23;101598.81;;;21.63;73.05
10510;BME280;5303;53.266;10.410;2022-07-23T13:10:49;101605.09;;;21.27;74.31